createdAt,value
2022-08-01T00:00:52.979Z,100.00
2022-08-01T00:03:54.770Z,100.00
2022-08-01T00:06:56.505Z,100.00
2022-08-01T00:09:58.287Z,100.00
2022-08-01T00:13:00.120Z,100.00
2022-08-01T00:16:02.335Z,100.00
2022-08-01T00:19:04.717Z,100.00
2022-08-01T00:22:07.286Z,100.00
2022-08-01T00:25:09.815Z,100.00
2022-08-01T00:28:11.578Z,100.00
2022-08-01T00:31:13.404Z,100.00
2022-08-01T00:34:15.259Z,100.00
2022-08-01T00:37:17.007Z,100.00
2022-08-01T00:40:18.712Z,100.00
2022-08-01T00:43:20.675Z,100.00
2022-08-01T00:46:22.519Z,100.00
2022-08-01T00:49:24.395Z,100.00
2022-08-01T00:52:26.259Z,100.00
2022-08-01T00:55:30.022Z,100.00
2022-08-01T00:58:33.398Z,100.00
2022-08-01T01:01:39.423Z,100.00
2022-08-01T01:04:41.805Z,100.00
2022-08-01T01:08:06.118Z,100.00
2022-08-01T01:11:32.711Z,100.00
2022-08-01T01:14:49.765Z,100.00
2022-08-01T01:17:59.408Z,100.00
2022-08-01T01:21:08.040Z,100.00
2022-08-01T01:24:13.576Z,100.00
2022-08-01T01:27:21.507Z,100.00
2022-08-01T01:30:25.427Z,100.00
2022-08-01T01:33:32.960Z,100.00
2022-08-01T01:36:35.103Z,100.00
2022-08-01T01:39:37.604Z,100.00
2022-08-01T01:42:40.018Z,100.00
2022-08-01T01:45:42.548Z,100.00
2022-08-01T01:48:46.204Z,100.00
2022-08-01T01:51:53.278Z,100.00
2022-08-01T01:55:07.748Z,100.00
2022-08-01T01:58:13.045Z,100.00
2022-08-01T02:01:15.932Z,100.00
2022-08-01T02:04:41.255Z,100.00
2022-08-01T02:07:43.828Z,100.00
2022-08-01T02:11:05.971Z,100.00
2022-08-01T02:14:09.358Z,100.00
2022-08-01T02:17:13.208Z,100.00
2022-08-01T02:20:15.153Z,100.00
2022-08-01T02:23:17.166Z,100.00
2022-08-01T02:26:19.474Z,100.00
2022-08-01T02:29:25.644Z,100.00
2022-08-01T02:32:32.633Z,100.00
2022-08-01T02:36:29.681Z,100.00
2022-08-01T02:39:02.115Z,100.00
2022-08-01T02:42:06.819Z,100.00
2022-08-01T02:45:10.439Z,100.00
2022-08-01T02:48:16.789Z,100.00
2022-08-01T02:51:18.963Z,100.00
2022-08-01T02:54:22.626Z,100.00
2022-08-01T02:57:25.583Z,100.00
2022-08-01T03:00:36.649Z,100.00
2022-08-01T03:03:39.279Z,100.00
2022-08-01T03:06:42.670Z,100.00
2022-08-01T03:09:47.587Z,100.00
2022-08-01T03:12:51.117Z,100.00
2022-08-01T03:15:54.158Z,100.00
2022-08-01T03:18:57.936Z,100.00
2022-08-01T03:22:00.865Z,100.00
2022-08-01T03:25:02.978Z,100.00
2022-08-01T03:28:06.037Z,100.00
2022-08-01T03:31:07.720Z,100.00
2022-08-01T03:34:09.871Z,100.00
2022-08-01T03:38:14.315Z,100.00
2022-08-01T03:41:14.726Z,100.00
2022-08-01T03:44:19.257Z,100.00
2022-08-01T03:47:23.185Z,100.00
2022-08-01T03:50:26.121Z,100.00
2022-08-01T03:53:31.769Z,100.00
2022-08-01T03:56:34.251Z,100.00
2022-08-01T03:59:37.616Z,100.00
2022-08-01T04:02:39.642Z,100.00
2022-08-01T04:05:43.560Z,100.00
2022-08-01T04:08:56.547Z,100.00
2022-08-01T04:12:01.795Z,100.00
2022-08-01T04:15:15.083Z,100.00
2022-08-01T04:18:16.846Z,100.00
2022-08-01T04:21:30.065Z,100.00
2022-08-01T04:24:33.754Z,100.00
2022-08-01T04:27:49.829Z,100.00
2022-08-01T04:30:59.731Z,100.00
2022-08-01T04:34:06.006Z,100.00
2022-08-01T04:37:11.237Z,100.00
2022-08-01T04:40:15.693Z,100.00
2022-08-01T04:43:17.831Z,100.00
2022-08-01T04:46:20.060Z,100.00
2022-08-01T04:49:25.611Z,100.00
2022-08-01T04:52:35.392Z,100.00
2022-08-01T04:55:37.128Z,100.00
2022-08-01T04:58:39.031Z,100.00
2022-08-01T05:01:40.837Z,100.00
2022-08-01T05:04:44.093Z,100.00
2022-08-01T05:07:45.891Z,100.00
2022-08-01T05:10:47.719Z,100.00
2022-08-01T05:13:49.827Z,100.00
2022-08-01T05:16:52.549Z,100.00
2022-08-01T05:19:54.899Z,100.00
2022-08-01T05:22:56.561Z,100.00
2022-08-01T05:25:59.557Z,100.00
2022-08-01T05:29:01.507Z,100.00
2022-08-01T05:32:04.049Z,100.00
2022-08-01T05:35:06.710Z,100.00
2022-08-01T05:38:08.487Z,100.00
2022-08-01T05:41:15.999Z,100.00
2022-08-01T05:44:17.832Z,100.00
2022-08-01T05:47:20.043Z,100.00
2022-08-01T05:50:21.849Z,100.00
2022-08-01T05:53:23.589Z,100.00
2022-08-01T05:56:29.338Z,100.00
2022-08-01T05:59:33.957Z,100.00
2022-08-01T06:02:35.745Z,100.00
2022-08-01T06:05:38.093Z,100.00
2022-08-01T06:08:39.725Z,100.00
2022-08-01T06:11:41.599Z,100.00
2022-08-01T06:14:43.330Z,100.00
2022-08-01T06:17:45.004Z,100.00
2022-08-01T06:20:48.583Z,100.00
2022-08-01T06:23:50.499Z,100.00
2022-08-01T06:26:52.336Z,100.00
2022-08-01T06:29:58.160Z,100.00
2022-08-01T06:33:01.194Z,100.00
2022-08-01T06:36:03.251Z,100.00
2022-08-01T06:39:05.059Z,100.00
2022-08-01T06:42:07.361Z,100.00
2022-08-01T06:45:11.162Z,100.00
2022-08-01T06:48:13.552Z,100.00
2022-08-01T06:51:18.688Z,100.00
2022-08-01T06:54:20.867Z,100.00
2022-08-01T06:57:22.677Z,100.00
2022-08-01T07:00:26.584Z,100.00
2022-08-01T07:03:53.642Z,100.00
2022-08-01T07:06:50.295Z,100.00
2022-08-01T07:09:52.077Z,100.00
2022-08-01T07:12:55.040Z,100.00
2022-08-01T07:15:56.819Z,100.00
2022-08-01T07:18:58.639Z,100.00
2022-08-01T07:22:00.426Z,100.00
2022-08-01T07:25:02.654Z,100.00
2022-08-01T07:28:05.017Z,100.00
2022-08-01T07:31:06.931Z,100.00
2022-08-01T07:34:09.050Z,100.00
2022-08-01T07:37:10.758Z,100.00
2022-08-01T07:40:12.826Z,100.00
2022-08-01T07:43:14.811Z,100.00
2022-08-01T07:46:17.937Z,100.00
2022-08-01T07:49:19.995Z,100.00
2022-08-01T07:52:21.847Z,100.00
2022-08-01T07:55:23.634Z,100.00
2022-08-01T07:58:25.305Z,100.00
2022-08-01T08:01:27.922Z,100.00
2022-08-01T08:04:30.038Z,100.00
2022-08-01T08:07:31.830Z,100.00
2022-08-01T08:10:34.705Z,100.00
2022-08-01T08:13:36.579Z,100.00
2022-08-01T08:16:39.515Z,100.00
2022-08-01T08:19:42.056Z,100.00
2022-08-01T08:22:44.336Z,100.00
2022-08-01T08:25:46.206Z,100.00
2022-08-01T08:28:47.989Z,100.00
2022-08-01T08:31:52.165Z,100.00
2022-08-01T08:34:54.778Z,100.00
2022-08-01T08:37:58.210Z,100.00
2022-08-01T08:41:00.649Z,100.00
2022-08-01T08:44:04.563Z,100.00
2022-08-01T08:47:06.647Z,100.00
2022-08-01T08:50:11.376Z,100.00
2022-08-01T08:53:18.974Z,100.00
2022-08-01T08:56:21.775Z,100.00
2022-08-01T08:59:25.941Z,100.00
2022-08-01T09:02:31.253Z,100.00
2022-08-01T09:05:39.311Z,100.00
2022-08-01T09:08:41.949Z,100.00
2022-08-01T09:12:03.702Z,100.00
2022-08-01T09:15:46.719Z,100.00
2022-08-01T09:19:15.979Z,100.00
2022-08-01T09:22:53.250Z,100.00
2022-08-01T09:26:11.459Z,100.00
2022-08-01T09:29:37.711Z,100.00
2022-08-01T09:33:06.405Z,100.00
2022-08-01T09:36:56.809Z,100.00
2022-08-01T09:39:59.171Z,100.00
2022-08-01T09:43:15.028Z,100.00
2022-08-01T09:46:20.511Z,100.00
2022-08-01T09:49:50.652Z,100.00
2022-08-01T09:52:58.204Z,99.76
2022-08-01T09:56:13.843Z,98.16
2022-08-01T09:59:57.063Z,97.04
2022-08-01T10:03:21.825Z,98.39
2022-08-01T10:06:44.064Z,97.40
2022-08-01T10:09:47.339Z,96.47
2022-08-01T10:12:52.763Z,96.03
2022-08-01T10:15:54.991Z,94.98
2022-08-01T10:19:01.739Z,94.05
2022-08-01T10:22:09.528Z,88.40
2022-08-01T10:25:42.707Z,82.12
2022-08-01T10:28:50.091Z,85.23
2022-08-01T10:32:10.296Z,87.54
2022-08-01T10:35:47.541Z,86.96
2022-08-01T10:38:52.071Z,88.98
2022-08-01T10:41:55.797Z,89.44
2022-08-01T10:44:58.590Z,89.04
2022-08-01T10:48:31.405Z,86.48
2022-08-01T10:51:54.884Z,85.91
2022-08-01T10:55:11.610Z,86.56
2022-08-01T10:58:15.949Z,87.29
2022-08-01T11:01:33.995Z,88.23
2022-08-01T11:04:55.641Z,86.98
2022-08-01T11:07:59.519Z,84.95
2022-08-01T11:11:02.765Z,85.47
2022-08-01T11:14:15.119Z,83.22
2022-08-01T11:17:42.803Z,83.38
2022-08-01T11:21:58.028Z,82.54
2022-08-01T11:24:50.589Z,83.15
2022-08-01T11:28:15.670Z,81.14
2022-08-01T11:31:17.362Z,81.97
2022-08-01T11:34:19.730Z,81.47
2022-08-01T11:37:30.626Z,82.39
2022-08-01T11:40:32.847Z,82.19
2022-08-01T11:43:34.948Z,81.14
2022-08-01T11:46:51.941Z,80.39
2022-08-01T11:49:57.206Z,82.04
2022-08-01T11:53:01.088Z,82.43
2022-08-01T11:56:02.893Z,81.71
2022-08-01T11:59:04.795Z,78.65
2022-08-01T12:02:30.186Z,77.65
2022-08-01T12:05:37.738Z,77.42
2022-08-01T12:08:45.678Z,79.09
2022-08-01T12:11:48.596Z,81.01
2022-08-01T12:15:10.581Z,80.99
2022-08-01T12:18:12.570Z,80.34
2022-08-01T12:21:14.598Z,79.32
2022-08-01T12:24:23.151Z,78.65
2022-08-01T12:27:29.454Z,78.10
2022-08-01T12:30:32.192Z,75.18
2022-08-01T12:33:35.264Z,75.00
2022-08-01T12:36:37.372Z,75.79
2022-08-01T12:39:40.237Z,73.90
2022-08-01T12:42:44.805Z,75.43
2022-08-01T12:45:54.290Z,77.23
2022-08-01T12:48:59.085Z,77.52
2022-08-01T12:52:01.504Z,76.79
2022-08-01T12:55:12.728Z,77.12
2022-08-01T12:58:16.444Z,76.66
2022-08-01T13:01:27.008Z,76.36
2022-08-01T13:04:28.778Z,76.37
2022-08-01T13:07:45.715Z,76.02
2022-08-01T13:10:48.842Z,76.10
2022-08-01T13:13:52.169Z,76.82
2022-08-01T13:16:57.291Z,77.60
2022-08-01T13:19:59.573Z,76.67
2022-08-01T13:23:15.249Z,76.90
2022-08-01T13:26:39.102Z,76.27
2022-08-01T13:29:42.630Z,75.01
2022-08-01T13:32:58.219Z,74.72
2022-08-01T13:36:00.259Z,75.33
2022-08-01T13:39:21.523Z,74.93
2022-08-01T13:42:23.851Z,74.75
2022-08-01T13:45:26.632Z,74.24
2022-08-01T13:48:28.569Z,70.85
2022-08-01T13:51:31.708Z,69.70
2022-08-01T13:54:33.836Z,70.38
2022-08-01T13:57:36.606Z,70.09
2022-08-01T14:00:39.099Z,70.23
2022-08-01T14:03:40.907Z,69.89
2022-08-01T14:06:42.725Z,70.46
2022-08-01T14:10:05.018Z,70.02
2022-08-01T14:13:06.704Z,68.61
2022-08-01T14:16:13.696Z,68.88
2022-08-01T14:19:19.366Z,69.03
2022-08-01T14:22:40.282Z,67.61
2022-08-01T14:26:03.728Z,66.83
2022-08-01T14:29:04.151Z,66.74
2022-08-01T14:32:06.101Z,68.04
2022-08-01T14:35:08.572Z,68.54
2022-08-01T14:38:10.574Z,70.06
2022-08-01T14:41:13.182Z,70.73
2022-08-01T14:44:14.936Z,69.51
2022-08-01T14:47:22.140Z,67.53
2022-08-01T14:50:27.837Z,69.37
2022-08-01T14:53:30.129Z,67.86
2022-08-01T14:56:31.989Z,67.82
2022-08-01T14:59:33.902Z,68.04
2022-08-01T15:02:35.667Z,68.56
2022-08-01T15:05:37.410Z,68.55
2022-08-01T15:08:39.286Z,67.37
2022-08-01T15:11:41.051Z,66.83
2022-08-01T15:14:51.618Z,65.28
2022-08-01T15:17:54.488Z,66.94
2022-08-01T15:20:56.998Z,68.06
2022-08-01T15:23:58.697Z,68.45
2022-08-01T15:27:00.487Z,68.54
2022-08-01T15:30:02.547Z,68.63
2022-08-01T15:33:04.398Z,69.10
2022-08-01T15:36:06.301Z,69.29
2022-08-01T15:39:14.034Z,69.14
2022-08-01T15:42:20.065Z,69.28
2022-08-01T15:48:49.491Z,69.18
2022-08-01T15:51:51.689Z,70.01
2022-08-01T15:54:53.462Z,70.04
2022-08-01T15:57:56.160Z,70.01
2022-08-01T16:00:57.954Z,69.83
2022-08-01T16:04:00.114Z,70.11
2022-08-01T16:07:02.172Z,70.37
2022-08-01T16:10:04.948Z,70.50
2022-08-01T16:13:06.871Z,70.61
2022-08-01T16:16:09.778Z,70.38
2022-08-01T16:19:11.538Z,70.71
2022-08-01T16:22:21.378Z,70.59
2022-08-01T16:25:23.156Z,71.04
2022-08-01T16:28:25.172Z,71.39
2022-08-01T16:31:42.613Z,71.66
2022-08-01T16:34:48.942Z,71.53
2022-08-01T16:37:50.662Z,71.63
2022-08-01T16:40:55.545Z,71.98
2022-08-01T16:43:59.479Z,72.23
2022-08-01T16:47:03.531Z,72.59
2022-08-01T16:50:06.159Z,72.59
2022-08-01T16:53:07.861Z,73.21
2022-08-01T16:56:09.757Z,73.26
2022-08-01T16:59:11.806Z,73.64
2022-08-01T17:02:13.537Z,73.69
2022-08-01T17:05:15.476Z,74.09
2022-08-01T17:08:17.383Z,74.26
2022-08-01T17:11:19.192Z,74.38
2022-08-01T17:14:20.882Z,74.66
2022-08-01T17:17:22.930Z,74.89
2022-08-01T17:20:24.941Z,75.20
2022-08-01T17:23:26.944Z,75.56
2022-08-01T17:26:28.842Z,75.59
2022-08-01T17:29:40.780Z,75.84
2022-08-01T17:32:46.261Z,75.90
2022-08-01T17:35:48.137Z,76.05
2022-08-01T17:38:50.282Z,76.31
2022-08-01T17:41:52.134Z,76.47
2022-08-01T17:44:54.306Z,76.52
2022-08-01T17:47:59.155Z,76.71
2022-08-01T17:51:00.938Z,76.85
2022-08-01T17:54:02.670Z,77.08
2022-08-01T17:57:05.217Z,77.27
2022-08-01T18:00:10.789Z,77.66
2022-08-01T18:03:13.190Z,77.95
2022-08-01T18:06:23.180Z,78.02
2022-08-01T18:09:25.586Z,78.22
2022-08-01T18:12:27.866Z,78.45
2022-08-01T18:15:30.249Z,78.60
2022-08-01T18:18:35.264Z,78.97
2022-08-01T18:21:41.050Z,79.43
2022-08-01T18:24:44.708Z,79.68
2022-08-01T18:28:19.683Z,79.85
2022-08-01T18:31:11.806Z,79.95
2022-08-01T18:34:13.923Z,80.24
2022-08-01T18:37:16.854Z,80.07
2022-08-01T18:40:23.123Z,80.45
2022-08-01T18:43:25.124Z,80.41
2022-08-01T18:46:27.262Z,80.55
2022-08-01T18:49:29.421Z,80.64
2022-08-01T18:52:32.291Z,80.83
2022-08-01T18:55:34.244Z,81.01
2022-08-01T18:58:36.365Z,81.22
2022-08-01T19:01:39.782Z,81.33
2022-08-01T19:04:41.831Z,81.54
2022-08-01T19:08:05.093Z,81.58
2022-08-01T19:11:06.736Z,82.09
2022-08-01T19:14:08.637Z,81.98
2022-08-01T19:17:10.405Z,82.16
2022-08-01T19:20:12.244Z,82.27
2022-08-01T19:23:32.486Z,82.61
2022-08-01T19:26:34.991Z,82.60
2022-08-01T19:29:38.567Z,82.71
2022-08-01T19:32:42.758Z,83.05
2022-08-01T19:35:44.924Z,83.07
2022-08-01T19:38:47.398Z,83.14
2022-08-01T19:41:51.489Z,83.25
2022-08-01T19:44:53.235Z,83.17
2022-08-01T19:47:57.244Z,83.36
2022-08-01T19:51:01.771Z,83.53
2022-08-01T19:54:05.399Z,83.77
2022-08-01T19:57:08.321Z,83.93
2022-08-01T20:00:13.000Z,83.88
2022-08-01T20:03:32.640Z,84.15
2022-08-01T20:06:35.494Z,84.18
2022-08-01T20:09:39.624Z,84.32
2022-08-01T20:12:41.721Z,84.60
2022-08-01T20:15:44.948Z,84.72
2022-08-01T20:18:46.858Z,85.04
2022-08-01T20:22:03.960Z,85.20
2022-08-01T20:25:07.146Z,85.27
2022-08-01T20:28:10.965Z,85.47
2022-08-01T20:31:14.093Z,85.71
2022-08-01T20:34:25.556Z,85.85
2022-08-01T20:38:06.399Z,85.68
2022-08-01T20:40:52.007Z,85.92
2022-08-01T20:43:55.515Z,85.86
2022-08-01T20:46:57.382Z,86.02
2022-08-01T20:50:27.056Z,86.38
2022-08-01T20:53:49.214Z,86.67
2022-08-01T20:57:05.070Z,86.86
2022-08-01T21:00:08.195Z,87.09
2022-08-01T21:03:20.303Z,87.20
2022-08-01T21:06:27.796Z,87.55
2022-08-01T21:09:36.998Z,87.80
2022-08-01T21:12:50.720Z,88.12
2022-08-01T21:16:22.185Z,88.05
2022-08-01T21:19:26.360Z,88.27
2022-08-01T21:22:53.000Z,88.27
2022-08-01T21:26:00.106Z,88.48
2022-08-01T21:29:06.768Z,88.64
2022-08-01T21:32:12.471Z,88.85
2022-08-01T21:35:16.681Z,88.99
2022-08-01T21:38:21.106Z,89.13
2022-08-01T21:41:56.031Z,89.21
2022-08-01T21:44:47.496Z,89.53
2022-08-01T21:47:51.439Z,89.86
2022-08-01T21:50:59.998Z,89.96
2022-08-01T21:54:34.650Z,90.18
2022-08-01T21:58:01.089Z,90.35
2022-08-01T22:01:15.905Z,90.62
2022-08-01T22:04:19.487Z,90.80
2022-08-01T22:07:22.606Z,91.05
2022-08-01T22:10:25.979Z,91.22
2022-08-01T22:13:27.987Z,91.30
2022-08-01T22:16:31.787Z,91.45
2022-08-01T22:19:45.057Z,91.43
2022-08-01T22:22:52.529Z,91.39
2022-08-01T22:25:55.809Z,91.66
2022-08-01T22:29:01.420Z,91.85
2022-08-01T22:32:03.657Z,91.95
2022-08-01T22:35:12.330Z,92.21
2022-08-01T22:38:17.675Z,92.37
2022-08-01T22:41:22.333Z,92.30
2022-08-01T22:44:38.905Z,92.37
2022-08-01T22:47:50.995Z,92.58
2022-08-01T22:51:07.223Z,92.82
2022-08-01T22:54:13.181Z,93.02
2022-08-01T22:57:20.795Z,93.17
2022-08-01T23:00:23.020Z,93.29
2022-08-01T23:03:29.551Z,93.52
2022-08-01T23:06:39.642Z,93.63
2022-08-01T23:09:53.702Z,93.61
2022-08-01T23:12:56.906Z,93.66
2022-08-01T23:16:00.326Z,93.63
2022-08-01T23:19:02.739Z,93.54
2022-08-01T23:22:04.948Z,93.52
2022-08-01T23:25:09.357Z,92.71
2022-08-01T23:28:12.827Z,92.56
2022-08-01T23:31:14.769Z,92.36
2022-08-01T23:34:19.717Z,92.74
2022-08-01T23:37:22.187Z,93.43
2022-08-01T23:40:25.194Z,93.71
2022-08-01T23:43:27.568Z,94.00
2022-08-01T23:46:29.671Z,93.83
2022-08-01T23:49:31.649Z,93.77
2022-08-01T23:52:34.166Z,93.75
2022-08-01T23:55:37.973Z,93.88
2022-08-01T23:58:40.418Z,94.76
